sensor_id;sensor_type;location;lat;lon;timestamp;pressure;altitude;pressure_sealevel;temperature;humidity
6094;BME280;19964;42.060;24.700;2023-10-31T00:01:52;97692.44;;;12.97;100.00
6094;BME280;19964;42.060;24.700;2023-10-31T00:04:20;97693.38;;;12.91;100.00
6094;BME280;19964;42.060;24.700;2023-10-31T00:06:47;97691.94;;;12.84;100.00
6094;BME280;19964;42.060;24.700;2023-10-31T00:09:13;97689.03;;;12.80;100.00
6094;BME280;19964;42.060;24.700;2023-10-31T00:11:41;97680.91;;;12.77;100.00
6094;BME280;19964;42.060;24.700;2023-10-31T00:14:07;97679.31;;;12.76;100.00
6094;BME280;19964;42.060;24.700;2023-10-31T00:16:34;97675.06;;;12.70;100.00
6094;BME280;19964;42.060;24.700;2023-10-31T00:19:02;97677.00;;;12.63;100.00
6094;BME280;19964;42.060;24.700;2023-10-31T00:21:29;97675.66;;;12.60;100.00
6094;BME280;19964;42.060;24.700;2023-10-31T00:23:55;97673.97;;;12.66;100.00
6094;BME280;19964;42.060;24.700;2023-10-31T00:26:22;97673.53;;;12.57;100.00
6094;BME280;19964;42.060;24.700;2023-10-31T00:28:48;97669.44;;;12.61;100.00
6094;BME280;19964;42.060;24.700;2023-10-31T00:31:15;97658.41;;;12.54;100.00
6094;BME280;19964;42.060;24.700;2023-10-31T00:33:41;97663.38;;;12.56;100.00
6094;BME280;19964;42.060;24.700;2023-10-31T00:36:10;97660.78;;;12.56;100.00
6094;BME280;19964;42.060;24.700;2023-10-31T00:38:36;97659.44;;;12.53;100.00
6094;BME280;19964;42.060;24.700;2023-10-31T00:41:03;97653.53;;;12.58;100.00
6094;BME280;19964;42.060;24.700;2023-10-31T00:43:29;97661.22;;;12.52;100.00
6094;BME280;19964;42.060;24.700;2023-10-31T00:45:56;97654.00;;;12.54;100.00
6094;BME280;19964;42.060;24.700;2023-10-31T00:48:22;97658.41;;;12.54;100.00
6094;BME280;19964;42.060;24.700;2023-10-31T00:50:49;97659.91;;;12.50;100.00
6094;BME280;19964;42.060;24.700;2023-10-31T00:53:17;97657.88;;;12.40;100.00
6094;BME280;19964;42.060;24.700;2023-10-31T00:55:43;97650.88;;;12.41;100.00
6094;BME280;19964;42.060;24.700;2023-10-31T00:58:10;97646.53;;;12.30;100.00
6094;BME280;19964;42.060;24.700;2023-10-31T01:00:36;97642.56;;;12.27;100.00
6094;BME280;19964;42.060;24.700;2023-10-31T01:03:03;97643.81;;;12.36;100.00
6094;BME280;19964;42.060;24.700;2023-10-31T01:05:30;97646.63;;;12.35;100.00
6094;BME280;19964;42.060;24.700;2023-10-31T01:07:56;97644.38;;;12.38;100.00
6094;BME280;19964;42.060;24.700;2023-10-31T01:10:24;97643.25;;;12.34;100.00
6094;BME280;19964;42.060;24.700;2023-10-31T01:12:51;97641.53;;;12.40;100.00
6094;BME280;19964;42.060;24.700;2023-10-31T01:15:17;97647.59;;;12.45;100.00
6094;BME280;19964;42.060;24.700;2023-10-31T01:17:44;97645.94;;;12.56;100.00
6094;BME280;19964;42.060;24.700;2023-10-31T01:20:10;97644.69;;;12.59;100.00
6094;BME280;19964;42.060;24.700;2023-10-31T01:22:37;97641.78;;;12.55;100.00
6094;BME280;19964;42.060;24.700;2023-10-31T01:25:04;97650.47;;;12.61;100.00
6094;BME280;19964;42.060;24.700;2023-10-31T01:27:32;97643.47;;;12.61;100.00
6094;BME280;19964;42.060;24.700;2023-10-31T01:29:59;97647.78;;;12.56;100.00
6094;BME280;19964;42.060;24.700;2023-10-31T01:32:26;97641.31;;;12.58;100.00
6094;BME280;19964;42.060;24.700;2023-10-31T01:34:52;97638.88;;;12.51;100.00
6094;BME280;19964;42.060;24.700;2023-10-31T01:37:19;97640.00;;;12.56;100.00
6094;BME280;19964;42.060;24.700;2023-10-31T01:39:46;97639.06;;;12.62;100.00
6094;BME280;19964;42.060;24.700;2023-10-31T01:42:13;97642.41;;;12.62;100.00
6094;BME280;19964;42.060;24.700;2023-10-31T01:44:41;97623.28;;;12.51;100.00
6094;BME280;19964;42.060;24.700;2023-10-31T01:47:08;97626.56;;;12.47;100.00
6094;BME280;19964;42.060;24.700;2023-10-31T01:49:34;97624.84;;;12.52;100.00
6094;BME280;19964;42.060;24.700;2023-10-31T01:52:01;97623.34;;;12.57;100.00
6094;BME280;19964;42.060;24.700;2023-10-31T01:54:29;97627.38;;;12.47;100.00
6094;BME280;19964;42.060;24.700;2023-10-31T01:56:55;97622.41;;;12.46;100.00
6094;BME280;19964;42.060;24.700;2023-10-31T01:59:23;97622.16;;;12.47;100.00
6094;BME280;19964;42.060;24.700;2023-10-31T02:01:51;97622.22;;;12.36;100.00
6094;BME280;19964;42.060;24.700;2023-10-31T02:04:18;97614.25;;;12.26;100.00
6094;BME280;19964;42.060;24.700;2023-10-31T02:06:44;97609.13;;;12.31;100.00
6094;BME280;19964;42.060;24.700;2023-10-31T02:09:11;97608.25;;;12.25;100.00
6094;BME280;19964;42.060;24.700;2023-10-31T02:11:37;97604.97;;;12.30;100.00
6094;BME280;19964;42.060;24.700;2023-10-31T02:14:04;97611.72;;;12.31;100.00
6094;BME280;19964;42.060;24.700;2023-10-31T02:16:30;97612.66;;;12.25;100.00
6094;BME280;19964;42.060;24.700;2023-10-31T02:18:58;97614.38;;;12.19;100.00
6094;BME280;19964;42.060;24.700;2023-10-31T02:21:25;97615.16;;;12.20;100.00
6094;BME280;19964;42.060;24.700;2023-10-31T02:23:59;97614.16;;;12.21;100.00
6094;BME280;19964;42.060;24.700;2023-10-31T02:26:28;97612.94;;;12.12;100.00
6094;BME280;19964;42.060;24.700;2023-10-31T02:28:55;97613.97;;;12.11;100.00
6094;BME280;19964;42.060;24.700;2023-10-31T02:31:21;97613.16;;;12.10;100.00
6094;BME280;19964;42.060;24.700;2023-10-31T02:33:48;97618.97;;;12.01;100.00
6094;BME280;19964;42.060;24.700;2023-10-31T02:36:14;97618.97;;;12.01;100.00
6094;BME280;19964;42.060;24.700;2023-10-31T02:38:41;97621.91;;;11.93;100.00
6094;BME280;19964;42.060;24.700;2023-10-31T02:41:09;97623.31;;;11.84;100.00
6094;BME280;19964;42.060;24.700;2023-10-31T02:43:35;97620.72;;;11.84;100.00
6094;BME280;19964;42.060;24.700;2023-10-31T02:46:02;97618.56;;;11.81;100.00
6094;BME280;19964;42.060;24.700;2023-10-31T02:48:29;97622.06;;;11.75;100.00
6094;BME280;19964;42.060;24.700;2023-10-31T02:50:57;97616.09;;;11.74;100.00
6094;BME280;19964;42.060;24.700;2023-10-31T02:53:23;97623.41;;;11.77;100.00
6094;BME280;19964;42.060;24.700;2023-10-31T02:55:50;97621.72;;;11.83;100.00
6094;BME280;19964;42.060;24.700;2023-10-31T02:58:17;97622.28;;;11.85;100.00
6094;BME280;19964;42.060;24.700;2023-10-31T03:00:44;97622.28;;;11.85;100.00
6094;BME280;19964;42.060;24.700;2023-10-31T03:03:10;97618.13;;;11.72;100.00
6094;BME280;19964;42.060;24.700;2023-10-31T03:05:37;97612.00;;;11.78;100.00
6094;BME280;19964;42.060;24.700;2023-10-31T03:08:04;97611.00;;;11.79;100.00
6094;BME280;19964;42.060;24.700;2023-10-31T03:10:32;97613.84;;;11.78;100.00
6094;BME280;19964;42.060;24.700;2023-10-31T03:12:59;97614.84;;;11.77;100.00
6094;BME280;19964;42.060;24.700;2023-10-31T03:15:27;97610.91;;;11.74;100.00
6094;BME280;19964;42.060;24.700;2023-10-31T03:17:53;97611.09;;;11.84;100.00
6094;BME280;19964;42.060;24.700;2023-10-31T03:20:20;97610.31;;;11.84;100.00
6094;BME280;19964;42.060;24.700;2023-10-31T03:22:46;97613.59;;;11.79;100.00
6094;BME280;19964;42.060;24.700;2023-10-31T03:25:13;97616.19;;;11.79;100.00
6094;BME280;19964;42.060;24.700;2023-10-31T03:27:40;97617.66;;;11.75;100.00
6094;BME280;19964;42.060;24.700;2023-10-31T03:30:07;97620.00;;;11.65;100.00
6094;BME280;19964;42.060;24.700;2023-10-31T03:32:35;97617.56;;;11.58;100.00
6094;BME280;19964;42.060;24.700;2023-10-31T03:35:01;97613.06;;;11.66;100.00
6094;BME280;19964;42.060;24.700;2023-10-31T03:37:28;97616.19;;;11.56;100.00
6094;BME280;19964;42.060;24.700;2023-10-31T03:39:54;97612.91;;;11.60;100.00
6094;BME280;19964;42.060;24.700;2023-10-31T03:42:21;97608.19;;;11.46;100.00
6094;BME280;19964;42.060;24.700;2023-10-31T03:44:47;97613.81;;;11.43;100.00
6094;BME280;19964;42.060;24.700;2023-10-31T03:47:14;97616.66;;;11.41;100.00
6094;BME280;19964;42.060;24.700;2023-10-31T03:49:42;97627.25;;;11.40;100.00
6094;BME280;19964;42.060;24.700;2023-10-31T03:52:08;97617.00;;;11.33;100.00
6094;BME280;19964;42.060;24.700;2023-10-31T03:54:35;97619.03;;;11.31;100.00
6094;BME280;19964;42.060;24.700;2023-10-31T03:57:02;97617.00;;;11.22;100.00
6094;BME280;19964;42.060;24.700;2023-10-31T03:59:28;97622.31;;;11.15;100.00
6094;BME280;19964;42.060;24.700;2023-10-31T04:01:55;97618.59;;;11.11;100.00
6094;BME280;19964;42.060;24.700;2023-10-31T04:04:21;97622.41;;;11.09;100.00
6094;BME280;19964;42.060;24.700;2023-10-31T04:06:49;97617.44;;;11.07;100.00
6094;BME280;19964;42.060;24.700;2023-10-31T04:09:16;97617.44;;;11.07;100.00
6094;BME280;19964;42.060;24.700;2023-10-31T04:11:42;97614.38;;;10.99;100.00
6094;BME280;19964;42.060;24.700;2023-10-31T04:14:09;97607.41;;;10.99;100.00
6094;BME280;19964;42.060;24.700;2023-10-31T04:16:38;97606.38;;;11.00;100.00
6094;BME280;19964;42.060;24.700;2023-10-31T04:19:04;97612.38;;;11.01;100.00
6094;BME280;19964;42.060;24.700;2023-10-31T04:21:31;97608.22;;;11.00;100.00
6094;BME280;19964;42.060;24.700;2023-10-31T04:23:59;97616.53;;;10.90;100.00
6094;BME280;19964;42.060;24.700;2023-10-31T04:26:26;97612.13;;;10.91;100.00
6094;BME280;19964;42.060;24.700;2023-10-31T04:28:53;97611.22;;;10.85;100.00
6094;BME280;19964;42.060;24.700;2023-10-31T04:31:19;97613.25;;;10.83;100.00
6094;BME280;19964;42.060;24.700;2023-10-31T04:33:46;97613.59;;;10.87;100.00
6094;BME280;19964;42.060;24.700;2023-10-31T04:36:12;97604.00;;;10.75;100.00
6094;BME280;19964;42.060;24.700;2023-10-31T04:38:39;97609.53;;;10.79;100.00
6094;BME280;19964;42.060;24.700;2023-10-31T04:41:07;97611.50;;;10.65;100.00
6094;BME280;19964;42.060;24.700;2023-10-31T04:43:34;97598.91;;;10.69;100.00
6094;BME280;19964;42.060;24.700;2023-10-31T04:46:01;97600.59;;;10.75;100.00
6094;BME280;19964;42.060;24.700;2023-10-31T04:48:27;97605.09;;;10.68;100.00
6094;BME280;19964;42.060;24.700;2023-10-31T04:50:54;97596.31;;;10.69;100.00
6094;BME280;19964;42.060;24.700;2023-10-31T04:53:21;97591.13;;;10.69;100.00
6094;BME280;19964;42.060;24.700;2023-10-31T04:55:48;97592.25;;;10.73;100.00
6094;BME280;19964;42.060;24.700;2023-10-31T04:58:16;97597.25;;;10.74;100.00
6094;BME280;19964;42.060;24.700;2023-10-31T05:00:42;97589.00;;;10.66;100.00
6094;BME280;19964;42.060;24.700;2023-10-31T05:03:09;97591.16;;;10.81;100.00
6094;BME280;19964;42.060;24.700;2023-10-31T05:05:36;97593.97;;;10.79;100.00
6094;BME280;19964;42.060;24.700;2023-10-31T05:08:03;97587.09;;;10.73;100.00
6094;BME280;19964;42.060;24.700;2023-10-31T05:10:30;97583.59;;;10.67;100.00
6094;BME280;19964;42.060;24.700;2023-10-31T05:12:56;97586.19;;;10.67;100.00
6094;BME280;19964;42.060;24.700;2023-10-31T05:15:24;97581.47;;;10.76;100.00
6094;BME280;19964;42.060;24.700;2023-10-31T05:17:51;97573.94;;;10.74;100.00
6094;BME280;19964;42.060;24.700;2023-10-31T05:20:17;97571.34;;;10.74;100.00
6094;BME280;19964;42.060;24.700;2023-10-31T05:22:45;97581.69;;;10.74;100.00
6094;BME280;19964;42.060;24.700;2023-10-31T05:25:12;97574.13;;;10.85;100.00
6094;BME280;19964;42.060;24.700;2023-10-31T05:27:38;97595.34;;;10.82;100.00
6094;BME280;19964;42.060;24.700;2023-10-31T05:30:06;97584.88;;;10.88;100.00
6094;BME280;19964;42.060;24.700;2023-10-31T05:32:34;97594.44;;;10.88;100.00
6094;BME280;19964;42.060;24.700;2023-10-31T05:35:00;97599.53;;;10.94;100.00
6094;BME280;19964;42.060;24.700;2023-10-31T05:37:27;97608.09;;;11.29;100.00
6094;BME280;19964;42.060;24.700;2023-10-31T05:39:54;97619.25;;;12.16;100.00
6094;BME280;19964;42.060;24.700;2023-10-31T05:42:20;97630.59;;;13.32;100.00
6094;BME280;19964;42.060;24.700;2023-10-31T05:44:48;97639.41;;;14.30;100.00
6094;BME280;19964;42.060;24.700;2023-10-31T05:47:15;97647.03;;;14.89;94.79
6094;BME280;19964;42.060;24.700;2023-10-31T05:49:43;97665.94;;;15.38;89.57
6094;BME280;19964;42.060;24.700;2023-10-31T05:52:10;97669.97;;;15.51;87.88
6094;BME280;19964;42.060;24.700;2023-10-31T05:54:37;97668.94;;;16.65;83.29
6094;BME280;19964;42.060;24.700;2023-10-31T05:57:03;97682.59;;;17.18;77.37
6094;BME280;19964;42.060;24.700;2023-10-31T05:59:30;97687.31;;;17.36;76.58
6094;BME280;19964;42.060;24.700;2023-10-31T06:01:57;97677.59;;;17.26;76.17
6094;BME280;19964;42.060;24.700;2023-10-31T06:04:24;97683.88;;;17.30;74.87
6094;BME280;19964;42.060;24.700;2023-10-31T06:06:53;97685.69;;;17.90;73.67
6094;BME280;19964;42.060;24.700;2023-10-31T06:09:19;97697.66;;;18.11;72.29
6094;BME280;19964;42.060;24.700;2023-10-31T06:11:46;97702.78;;;18.51;70.70
6094;BME280;19964;42.060;24.700;2023-10-31T06:14:12;97701.13;;;19.09;67.66
6094;BME280;19964;42.060;24.700;2023-10-31T06:16:39;97711.53;;;19.82;65.03
6094;BME280;19964;42.060;24.700;2023-10-31T06:19:06;97712.56;;;19.86;63.33
6094;BME280;19964;42.060;24.700;2023-10-31T06:21:33;97699.44;;;20.33;61.97
6094;BME280;19964;42.060;24.700;2023-10-31T06:24:01;97699.94;;;20.35;60.50
6094;BME280;19964;42.060;24.700;2023-10-31T06:26:27;97700.41;;;20.18;60.72
6094;BME280;19964;42.060;24.700;2023-10-31T06:28:54;97704.06;;;20.17;60.73
6094;BME280;19964;42.060;24.700;2023-10-31T06:31:20;97696.31;;;20.31;59.57
6094;BME280;19964;42.060;24.700;2023-10-31T06:33:47;97702.34;;;20.92;57.85
6094;BME280;19964;42.060;24.700;2023-10-31T06:36:14;97709.03;;;21.22;56.98
6094;BME280;19964;42.060;24.700;2023-10-31T06:38:40;97710.34;;;20.64;57.59
6094;BME280;19964;42.060;24.700;2023-10-31T06:41:08;97712.94;;;21.57;56.88
6094;BME280;19964;42.060;24.700;2023-10-31T06:43:35;97709.41;;;22.34;54.01
6094;BME280;19964;42.060;24.700;2023-10-31T06:46:01;97706.34;;;22.81;53.77
6094;BME280;19964;42.060;24.700;2023-10-31T06:48:30;97685.84;;;20.87;54.98
6094;BME280;19964;42.060;24.700;2023-10-31T06:50:56;97690.59;;;21.68;54.69
6094;BME280;19964;42.060;24.700;2023-10-31T06:53:23;97688.97;;;20.89;55.72
6094;BME280;19964;42.060;24.700;2023-10-31T06:55:49;97675.56;;;19.53;59.60
6094;BME280;19964;42.060;24.700;2023-10-31T06:58:17;97682.50;;;19.92;58.44
6094;BME280;19964;42.060;24.700;2023-10-31T07:00:44;97680.00;;;20.05;57.84
6094;BME280;19964;42.060;24.700;2023-10-31T07:03:10;97681.28;;;19.27;60.89
6094;BME280;19964;42.060;24.700;2023-10-31T07:05:40;97668.66;;;19.29;61.93
6094;BME280;19964;42.060;24.700;2023-10-31T07:08:08;97673.50;;;19.98;59.61
6094;BME280;19964;42.060;24.700;2023-10-31T07:10:34;97670.94;;;19.93;59.80
6094;BME280;19964;42.060;24.700;2023-10-31T07:13:01;97673.31;;;20.79;57.13
6094;BME280;19964;42.060;24.700;2023-10-31T07:15:29;97663.16;;;21.55;55.64
6094;BME280;19964;42.060;24.700;2023-10-31T07:17:56;97668.84;;;20.18;57.78
6094;BME280;19964;42.060;24.700;2023-10-31T07:20:22;97671.28;;;19.29;59.93
6094;BME280;19964;42.060;24.700;2023-10-31T07:22:49;97670.41;;;19.05;59.69
6094;BME280;19964;42.060;24.700;2023-10-31T07:25:15;97663.66;;;19.85;59.25
6094;BME280;19964;42.060;24.700;2023-10-31T07:27:42;97662.19;;;20.45;58.98
6094;BME280;19964;42.060;24.700;2023-10-31T07:30:09;97665.06;;;21.50;54.63
6094;BME280;19964;42.060;24.700;2023-10-31T07:32:37;97654.69;;;22.12;53.16
6094;BME280;19964;42.060;24.700;2023-10-31T07:35:04;97671.66;;;22.34;53.29
6094;BME280;19964;42.060;24.700;2023-10-31T07:37:31;97662.38;;;22.36;53.11
6094;BME280;19964;42.060;24.700;2023-10-31T07:39:57;97667.56;;;22.00;52.49
6094;BME280;19964;42.060;24.700;2023-10-31T07:42:24;97662.16;;;22.95;51.39
6094;BME280;19964;42.060;24.700;2023-10-31T07:44:50;97656.97;;;23.35;50.12
6094;BME280;19964;42.060;24.700;2023-10-31T07:47:17;97660.34;;;23.05;50.29
6094;BME280;19964;42.060;24.700;2023-10-31T07:49:45;97651.66;;;22.19;52.44
6094;BME280;19964;42.060;24.700;2023-10-31T07:52:11;97648.69;;;22.83;51.36
6094;BME280;19964;42.060;24.700;2023-10-31T07:54:38;97639.94;;;22.61;51.17
6094;BME280;19964;42.060;24.700;2023-10-31T07:57:05;97643.63;;;23.18;50.17
6094;BME280;19964;42.060;24.700;2023-10-31T07:59:32;97643.13;;;23.60;49.08
6094;BME280;19964;42.060;24.700;2023-10-31T08:01:59;97636.19;;;23.81;48.86
6094;BME280;19964;42.060;24.700;2023-10-31T08:04:26;97626.13;;;24.00;49.80
6094;BME280;19964;42.060;24.700;2023-10-31T08:06:54;97626.47;;;23.68;48.62
6094;BME280;19964;42.060;24.700;2023-10-31T08:09:21;97616.44;;;23.17;48.52
6094;BME280;19964;42.060;24.700;2023-10-31T08:11:47;97610.56;;;22.76;50.11
6094;BME280;19964;42.060;24.700;2023-10-31T08:14:14;97603.72;;;22.26;51.10
6094;BME280;19964;42.060;24.700;2023-10-31T08:16:41;97594.66;;;21.77;51.92
6094;BME280;19964;42.060;24.700;2023-10-31T08:19:07;97589.16;;;21.19;53.50
6094;BME280;19964;42.060;24.700;2023-10-31T08:21:34;97587.75;;;21.08;53.88
6094;BME280;19964;42.060;24.700;2023-10-31T08:24:04;97586.44;;;20.42;55.49
6094;BME280;19964;42.060;24.700;2023-10-31T08:26:30;97584.97;;;21.59;54.75
6094;BME280;19964;42.060;24.700;2023-10-31T08:28:57;97587.53;;;20.73;55.42
6094;BME280;19964;42.060;24.700;2023-10-31T08:31:24;97582.81;;;20.88;56.16
6094;BME280;19964;42.060;24.700;2023-10-31T08:33:50;97583.28;;;21.82;54.71
6094;BME280;19964;42.060;24.700;2023-10-31T08:36:17;97593.09;;;22.66;52.30
6094;BME280;19964;42.060;24.700;2023-10-31T08:38:43;97592.13;;;21.32;54.09
6094;BME280;19964;42.060;24.700;2023-10-31T08:41:11;97590.03;;;21.28;54.67
6094;BME280;19964;42.060;24.700;2023-10-31T08:43:43;97592.81;;;21.78;53.41
6094;BME280;19964;42.060;24.700;2023-10-31T08:46:10;97608.44;;;21.61;53.84
6094;BME280;19964;42.060;24.700;2023-10-31T08:48:37;97605.50;;;21.62;54.02
6094;BME280;19964;42.060;24.700;2023-10-31T08:51:03;97609.63;;;21.55;53.68
6094;BME280;19964;42.060;24.700;2023-10-31T08:53:30;97600.44;;;21.93;52.51
6094;BME280;19964;42.060;24.700;2023-10-31T08:55:56;97602.56;;;22.67;51.97
6094;BME280;19964;42.060;24.700;2023-10-31T08:58:24;97597.41;;;22.13;51.36
6094;BME280;19964;42.060;24.700;2023-10-31T09:00:51;97584.72;;;21.88;52.74
6094;BME280;19964;42.060;24.700;2023-10-31T09:03:17;97584.09;;;22.54;52.68
6094;BME280;19964;42.060;24.700;2023-10-31T09:05:44;97574.41;;;22.49;52.28
6094;BME280;19964;42.060;24.700;2023-10-31T09:08:11;97571.91;;;22.88;51.40
6094;BME280;19964;42.060;24.700;2023-10-31T09:10:37;97560.03;;;22.99;52.88
6094;BME280;19964;42.060;24.700;2023-10-31T09:13:04;97552.34;;;23.20;49.93
6094;BME280;19964;42.060;24.700;2023-10-31T09:15:32;97539.53;;;23.36;49.47
6094;BME280;19964;42.060;24.700;2023-10-31T09:17:59;97536.31;;;23.47;49.04
6094;BME280;19964;42.060;24.700;2023-10-31T09:20:25;97537.25;;;22.90;49.50
6094;BME280;19964;42.060;24.700;2023-10-31T09:22:52;97521.56;;;23.55;50.01
6094;BME280;19964;42.060;24.700;2023-10-31T09:25:19;97510.03;;;23.51;48.73
6094;BME280;19964;42.060;24.700;2023-10-31T09:27:45;97505.94;;;24.27;48.47
6094;BME280;19964;42.060;24.700;2023-10-31T09:30:12;97498.97;;;23.49;48.45
6094;BME280;19964;42.060;24.700;2023-10-31T09:32:40;97505.34;;;23.09;50.13
6094;BME280;19964;42.060;24.700;2023-10-31T09:35:07;97502.97;;;22.98;51.10
6094;BME280;19964;42.060;24.700;2023-10-31T09:37:34;97492.97;;;22.87;50.31
6094;BME280;19964;42.060;24.700;2023-10-31T09:40:00;97492.38;;;22.98;50.83
6094;BME280;19964;42.060;24.700;2023-10-31T09:42:27;97496.94;;;22.76;50.15
6094;BME280;19964;42.060;24.700;2023-10-31T09:44:54;97488.94;;;23.29;50.16
6094;BME280;19964;42.060;24.700;2023-10-31T09:47:21;97491.25;;;23.78;49.59
6094;BME280;19964;42.060;24.700;2023-10-31T09:49:50;97485.72;;;22.26;50.69
6094;BME280;19964;42.060;24.700;2023-10-31T09:52:17;97482.06;;;22.58;51.26
6094;BME280;19964;42.060;24.700;2023-10-31T09:54:45;97479.41;;;22.36;51.26
6094;BME280;19964;42.060;24.700;2023-10-31T09:57:13;97471.47;;;22.80;49.99
6094;BME280;19964;42.060;24.700;2023-10-31T09:59:42;97464.03;;;23.30;49.66
6094;BME280;19964;42.060;24.700;2023-10-31T10:02:08;97447.97;;;23.74;47.78
6094;BME280;19964;42.060;24.700;2023-10-31T10:04:35;97450.78;;;23.69;49.32
6094;BME280;19964;42.060;24.700;2023-10-31T10:07:04;97447.50;;;24.40;48.34
6094;BME280;19964;42.060;24.700;2023-10-31T10:09:30;97444.47;;;24.67;47.42
6094;BME280;19964;42.060;24.700;2023-10-31T10:11:58;97433.06;;;24.04;46.40
6094;BME280;19964;42.060;24.700;2023-10-31T10:14:25;97427.75;;;24.04;47.48
6094;BME280;19964;42.060;24.700;2023-10-31T10:16:51;97427.91;;;24.88;48.33
6094;BME280;19964;42.060;24.700;2023-10-31T10:19:19;97427.16;;;24.70;46.24
6094;BME280;19964;42.060;24.700;2023-10-31T10:21:46;97417.00;;;24.00;46.99
6094;BME280;19964;42.060;24.700;2023-10-31T10:24:15;97416.84;;;23.88;47.48
6094;BME280;19964;42.060;24.700;2023-10-31T10:26:41;97408.44;;;23.60;48.00
6094;BME280;19964;42.060;24.700;2023-10-31T10:29:08;97409.22;;;23.69;47.98
6094;BME280;19964;42.060;24.700;2023-10-31T10:31:34;97397.28;;;22.68;49.78
6094;BME280;19964;42.060;24.700;2023-10-31T10:34:01;97395.75;;;23.15;49.83
6094;BME280;19964;42.060;24.700;2023-10-31T10:36:28;97392.50;;;23.26;49.03
6094;BME280;19964;42.060;24.700;2023-10-31T10:38:56;97402.28;;;23.26;50.16
6094;BME280;19964;42.060;24.700;2023-10-31T10:41:24;97400.47;;;23.43;48.36
6094;BME280;19964;42.060;24.700;2023-10-31T10:43:52;97393.03;;;23.62;48.67
6094;BME280;19964;42.060;24.700;2023-10-31T10:46:20;97394.72;;;24.27;47.52
6094;BME280;19964;42.060;24.700;2023-10-31T10:48:48;97391.16;;;23.63;49.88
6094;BME280;19964;42.060;24.700;2023-10-31T10:51:18;97383.84;;;23.51;49.06
6094;BME280;19964;42.060;24.700;2023-10-31T10:53:48;97384.91;;;23.50;48.47
6094;BME280;19964;42.060;24.700;2023-10-31T10:56:16;97380.84;;;24.30;48.72
6094;BME280;19964;42.060;24.700;2023-10-31T10:58:49;97380.28;;;23.81;48.26
6094;BME280;19964;42.060;24.700;2023-10-31T11:01:17;97376.38;;;23.70;48.66
6094;BME280;19964;42.060;24.700;2023-10-31T11:03:44;97368.44;;;23.70;49.17
6094;BME280;19964;42.060;24.700;2023-10-31T11:06:11;97369.53;;;23.69;48.54
6094;BME280;19964;42.060;24.700;2023-10-31T11:08:38;97360.97;;;23.55;48.40
6094;BME280;19964;42.060;24.700;2023-10-31T11:11:05;97358.31;;;23.72;48.60
6094;BME280;19964;42.060;24.700;2023-10-31T11:13:31;97357.38;;;23.85;48.33
6094;BME280;19964;42.060;24.700;2023-10-31T11:16:02;97351.59;;;24.01;48.67
6094;BME280;19964;42.060;24.700;2023-10-31T11:18:30;97345.66;;;23.18;50.29
6094;BME280;19964;42.060;24.700;2023-10-31T11:20:57;97343.84;;;22.62;50.85
6094;BME280;19964;42.060;24.700;2023-10-31T11:23:24;97342.66;;;22.85;50.62
6094;BME280;19964;42.060;24.700;2023-10-31T11:25:50;97338.41;;;23.41;51.13
6094;BME280;19964;42.060;24.700;2023-10-31T11:28:18;97333.56;;;23.68;49.27
6094;BME280;19964;42.060;24.700;2023-10-31T11:30:46;97327.00;;;22.97;50.50
6094;BME280;19964;42.060;24.700;2023-10-31T11:33:16;97330.19;;;22.86;51.35
6094;BME280;19964;42.060;24.700;2023-10-31T11:35:43;97320.09;;;22.88;51.46
6094;BME280;19964;42.060;24.700;2023-10-31T11:38:11;97317.03;;;23.12;52.38
6094;BME280;19964;42.060;24.700;2023-10-31T11:40:38;97320.72;;;22.46;51.87
6094;BME280;19964;42.060;24.700;2023-10-31T11:43:24;97312.50;;;22.47;51.90
6094;BME280;19964;42.060;24.700;2023-10-31T11:45:50;97308.09;;;22.65;51.64
6094;BME280;19964;42.060;24.700;2023-10-31T11:48:32;97300.97;;;22.74;51.67
6094;BME280;19964;42.060;24.700;2023-10-31T11:51:07;97293.22;;;22.86;51.71
6094;BME280;19964;42.060;24.700;2023-10-31T11:53:35;97279.69;;;22.79;51.51
6094;BME280;19964;42.060;24.700;2023-10-31T11:56:05;97284.47;;;22.60;52.11
6094;BME280;19964;42.060;24.700;2023-10-31T11:58:31;97279.13;;;22.51;52.14
6094;BME280;19964;42.060;24.700;2023-10-31T12:01:00;97290.63;;;22.47;52.48
6094;BME280;19964;42.060;24.700;2023-10-31T12:03:36;97280.78;;;22.39;53.11
6094;BME280;19964;42.060;24.700;2023-10-31T12:06:03;97276.38;;;22.17;52.52
6094;BME280;19964;42.060;24.700;2023-10-31T12:08:30;97268.09;;;22.10;53.54
6094;BME280;19964;42.060;24.700;2023-10-31T12:11:07;97261.19;;;21.92;53.82
6094;BME280;19964;42.060;24.700;2023-10-31T12:13:34;97253.03;;;22.10;53.49
6094;BME280;19964;42.060;24.700;2023-10-31T12:16:01;97253.81;;;22.11;53.63
6094;BME280;19964;42.060;24.700;2023-10-31T12:18:29;97255.75;;;22.28;53.32
6094;BME280;19964;42.060;24.700;2023-10-31T12:20:56;97248.06;;;22.09;53.10
6094;BME280;19964;42.060;24.700;2023-10-31T12:23:22;97241.06;;;22.04;53.78
6094;BME280;19964;42.060;24.700;2023-10-31T12:25:49;97245.19;;;21.88;53.33
6094;BME280;19964;42.060;24.700;2023-10-31T12:28:16;97237.13;;;21.93;53.35
6094;BME280;19964;42.060;24.700;2023-10-31T12:30:44;97220.56;;;22.01;53.56
6094;BME280;19964;42.060;24.700;2023-10-31T12:33:10;97231.88;;;21.71;53.39
6094;BME280;19964;42.060;24.700;2023-10-31T12:35:38;97218.28;;;21.56;54.04
6094;BME280;19964;42.060;24.700;2023-10-31T12:38:05;97214.69;;;21.52;54.35
6094;BME280;19964;42.060;24.700;2023-10-31T12:40:33;97206.06;;;21.60;54.12
6094;BME280;19964;42.060;24.700;2023-10-31T12:43:00;97211.50;;;21.63;53.92
6094;BME280;19964;42.060;24.700;2023-10-31T12:45:26;97208.84;;;21.63;54.39
6094;BME280;19964;42.060;24.700;2023-10-31T12:48:02;97203.88;;;21.53;54.17
6094;BME280;19964;42.060;24.700;2023-10-31T12:50:30;97204.75;;;21.49;55.17
6094;BME280;19964;42.060;24.700;2023-10-31T12:52:58;97199.66;;;21.52;54.03
6094;BME280;19964;42.060;24.700;2023-10-31T12:55:25;97201.22;;;21.53;54.18